createdAt,value
2018-12-12T00:00:00.281Z,7.92
2018-12-12T00:04:53.480Z,8.33
2018-12-12T00:09:46.729Z,8.45
2018-12-12T00:14:39.909Z,8.80
2018-12-12T00:19:33.112Z,9.33
2018-12-12T00:24:26.303Z,8.37
2018-12-12T00:29:19.509Z,9.40
2018-12-12T00:34:12.717Z,9.08
2018-12-12T00:39:07.622Z,8.90
2018-12-12T00:44:00.803Z,9.70
2018-12-12T00:48:54.708Z,10.38
2018-12-12T00:53:47.885Z,10.70
2018-12-12T00:58:41.159Z,10.45
2018-12-12T01:03:34.338Z,10.20
2018-12-12T01:08:27.535Z,10.45
2018-12-12T01:13:20.759Z,11.18
2018-12-12T01:18:13.997Z,9.75
2018-12-12T01:23:07.178Z,10.58
2018-12-12T01:28:00.446Z,10.50
2018-12-12T01:32:53.779Z,10.72
2018-12-12T01:37:46.989Z,10.70
2018-12-12T01:42:40.323Z,11.28
2018-12-12T01:47:33.539Z,11.22
2018-12-12T01:52:26.755Z,11.15
2018-12-12T01:57:20.059Z,10.98
2018-12-12T02:02:13.374Z,11.03
2018-12-12T02:07:07.208Z,11.97
2018-12-12T02:12:00.432Z,11.10
2018-12-12T02:16:53.833Z,10.48
2018-12-12T02:21:47.683Z,11.18
2018-12-12T02:26:41.429Z,10.70
2018-12-12T02:31:34.756Z,10.78
2018-12-12T02:36:27.982Z,10.82
2018-12-12T02:41:21.151Z,10.13
2018-12-12T02:46:14.323Z,10.75
2018-12-12T02:51:07.538Z,10.80
2018-12-12T02:56:00.742Z,11.22
2018-12-12T03:00:53.982Z,11.70
2018-12-12T03:05:47.221Z,11.70
2018-12-12T03:10:40.487Z,11.57
2018-12-12T03:15:33.692Z,11.85
2018-12-12T03:20:27.006Z,11.57
2018-12-12T03:25:20.237Z,11.38
2018-12-12T03:30:13.439Z,11.30
2018-12-12T03:35:06.636Z,11.75
2018-12-12T03:40:00.321Z,12.20
2018-12-12T03:44:53.484Z,11.78
2018-12-12T03:49:46.792Z,11.43
2018-12-12T03:54:40.009Z,10.72
2018-12-12T03:59:33.222Z,11.30
2018-12-12T04:04:26.403Z,11.35
2018-12-12T04:09:19.609Z,11.55
2018-12-12T04:14:12.863Z,11.80
2018-12-12T04:19:06.182Z,12.25
2018-12-12T04:23:59.389Z,11.73
2018-12-12T04:28:52.629Z,11.33
2018-12-12T04:33:45.832Z,11.70
2018-12-12T04:38:39.117Z,11.83
2018-12-12T04:43:32.305Z,11.83
2018-12-12T04:48:25.512Z,11.95
2018-12-12T04:53:18.716Z,11.50
2018-12-12T04:58:11.940Z,11.12
2018-12-12T05:03:05.224Z,11.83
2018-12-12T05:07:58.401Z,12.25
2018-12-12T05:12:51.606Z,11.93
2018-12-12T05:17:44.818Z,11.00
2018-12-12T05:22:38.032Z,11.08
2018-12-12T05:27:31.236Z,11.12
2018-12-12T05:32:24.396Z,11.20
2018-12-12T05:37:17.725Z,10.32
2018-12-12T05:42:10.924Z,10.48
2018-12-12T05:47:04.165Z,11.18
2018-12-12T05:51:57.351Z,10.40
2018-12-12T05:56:52.475Z,11.05
2018-12-12T06:01:45.797Z,11.40
2018-12-12T06:06:39.075Z,10.98
2018-12-12T06:11:32.416Z,11.10
2018-12-12T06:16:25.637Z,11.65
2018-12-12T06:21:18.846Z,11.40
2018-12-12T06:26:12.054Z,11.78
2018-12-12T06:31:05.272Z,11.93
2018-12-12T06:35:58.473Z,11.95
2018-12-12T06:40:51.664Z,11.57
2018-12-12T06:45:44.877Z,10.58
2018-12-12T06:50:38.086Z,10.85
2018-12-12T06:55:31.301Z,11.47
2018-12-12T07:00:24.620Z,10.13
2018-12-12T07:05:17.801Z,11.20
2018-12-12T07:10:11.017Z,11.68
2018-12-12T07:15:04.604Z,11.73
2018-12-12T07:19:57.791Z,11.05
2018-12-12T07:24:51.035Z,10.90
2018-12-12T07:29:44.283Z,10.93
2018-12-12T07:34:37.486Z,11.28
2018-12-12T07:39:30.701Z,11.15
2018-12-12T07:44:24.849Z,11.70
2018-12-12T07:49:18.506Z,11.53
2018-12-12T07:54:11.733Z,12.13
2018-12-12T07:59:05.654Z,11.60
2018-12-12T08:03:58.838Z,12.55
2018-12-12T08:08:52.121Z,12.28
2018-12-12T08:13:45.477Z,12.03
2018-12-12T08:18:38.673Z,11.65
2018-12-12T08:23:32.365Z,12.85
2018-12-12T08:28:25.541Z,12.55
2018-12-12T08:33:18.729Z,10.75
2018-12-12T08:38:11.987Z,11.40
2018-12-12T08:43:05.335Z,12.70
2018-12-12T08:47:58.499Z,11.25
2018-12-12T08:52:52.805Z,12.45
2018-12-12T08:57:46.005Z,16.50
2018-12-12T09:02:39.209Z,12.85
2018-12-12T09:07:32.423Z,13.15
2018-12-12T09:12:25.729Z,13.62
2018-12-12T09:17:18.976Z,13.28
2018-12-12T09:22:12.274Z,12.53
2018-12-12T09:27:05.449Z,12.88
2018-12-12T09:31:58.659Z,13.35
2018-12-12T09:36:51.839Z,12.78
2018-12-12T09:41:45.066Z,12.35
2018-12-12T09:46:38.220Z,12.25
2018-12-12T09:51:31.435Z,19.15
2018-12-12T09:56:24.659Z,12.85
2018-12-12T10:01:17.856Z,11.08
2018-12-12T10:06:11.060Z,10.25
2018-12-12T10:11:04.270Z,10.15
2018-12-12T10:15:57.458Z,12.60
2018-12-12T10:20:51.542Z,9.98
2018-12-12T10:25:44.963Z,11.28
2018-12-12T10:30:38.225Z,10.13
2018-12-12T10:35:31.464Z,11.43
2018-12-12T10:40:24.641Z,9.83
2018-12-12T10:45:17.841Z,11.05
2018-12-12T10:50:11.091Z,9.88
2018-12-12T10:55:06.157Z,10.08
2018-12-12T10:59:59.347Z,9.75
2018-12-12T11:04:52.551Z,12.13
2018-12-12T11:09:45.747Z,8.78
2018-12-12T11:14:38.932Z,9.63
2018-12-12T11:19:32.425Z,10.43
2018-12-12T11:24:25.631Z,9.83
2018-12-12T11:29:18.888Z,8.35
2018-12-12T11:34:12.162Z,6.72
2018-12-12T11:39:07.095Z,8.25
2018-12-12T11:44:00.288Z,5.03
2018-12-12T11:48:53.532Z,3.33
2018-12-12T11:54:03.462Z,4.28
2018-12-12T11:58:56.739Z,3.75
2018-12-12T12:03:50.109Z,3.08
2018-12-12T12:08:43.291Z,4.22
2018-12-12T12:13:36.501Z,2.02
2018-12-12T12:18:29.759Z,3.00
2018-12-12T12:23:22.972Z,3.42
2018-12-12T12:28:17.512Z,3.92
2018-12-12T12:33:10.831Z,4.40
2018-12-12T12:38:04.135Z,4.35
2018-12-12T12:42:57.914Z,4.37
2018-12-12T12:47:51.266Z,4.58
2018-12-12T12:52:44.493Z,4.10
2018-12-12T12:57:38.342Z,3.20
2018-12-12T13:02:31.559Z,3.30
2018-12-12T13:07:24.773Z,3.45
2018-12-12T13:12:18.140Z,3.22
2018-12-12T13:17:11.505Z,4.37
2018-12-12T13:22:05.551Z,4.87
2018-12-12T13:26:59.427Z,4.40
2018-12-12T13:31:53.537Z,4.00
2018-12-12T13:36:46.797Z,4.92
2018-12-12T13:41:39.991Z,3.98
2018-12-12T13:46:33.303Z,4.67
2018-12-12T13:51:27.173Z,4.40
2018-12-12T13:56:20.389Z,3.72
2018-12-12T14:01:13.759Z,3.10
2018-12-12T14:06:07.068Z,2.90
2018-12-12T14:11:00.630Z,3.70
2018-12-12T14:15:53.837Z,3.80
2018-12-12T14:20:47.032Z,3.87
2018-12-12T14:25:40.268Z,3.55
2018-12-12T14:30:33.459Z,3.02
2018-12-12T14:35:27.175Z,3.10
2018-12-12T14:40:21.011Z,3.62
2018-12-12T14:45:14.222Z,3.45
2018-12-12T14:50:07.633Z,3.70
2018-12-12T14:55:00.949Z,3.50
2018-12-12T14:59:54.145Z,3.85
2018-12-12T15:04:47.364Z,4.15
2018-12-12T15:09:41.353Z,3.75
2018-12-12T15:14:34.576Z,3.80
2018-12-12T15:19:27.771Z,4.05
2018-12-12T15:24:21.001Z,4.15
2018-12-12T15:29:15.781Z,4.22
2018-12-12T15:34:09.972Z,3.95
2018-12-12T15:39:06.080Z,5.00
2018-12-12T15:43:59.270Z,4.97
2018-12-12T15:48:52.555Z,5.10
2018-12-12T15:53:45.840Z,4.55
2018-12-12T15:58:39.539Z,4.35
2018-12-12T16:03:32.737Z,5.10
2018-12-12T16:08:27.375Z,4.55
2018-12-12T16:13:20.598Z,5.08
2018-12-12T16:18:13.837Z,5.33
2018-12-12T16:23:07.064Z,5.80
2018-12-12T16:28:00.255Z,6.33
2018-12-12T16:32:54.366Z,4.58
2018-12-12T16:37:47.556Z,5.50
2018-12-12T16:42:40.830Z,5.30
2018-12-12T16:47:34.039Z,5.65
2018-12-12T16:52:27.809Z,5.78
2018-12-12T16:57:21.012Z,5.80
2018-12-12T17:02:14.343Z,6.15
2018-12-12T17:07:07.561Z,6.22
2018-12-12T17:12:00.785Z,6.55
2018-12-12T17:16:54.393Z,6.20
2018-12-12T17:21:47.862Z,6.92
2018-12-12T17:26:42.669Z,6.25
2018-12-12T17:31:35.938Z,7.37
2018-12-12T17:36:29.179Z,6.83
2018-12-12T17:41:22.417Z,6.75
2018-12-12T17:46:15.603Z,7.33
2018-12-12T17:51:08.825Z,7.30
2018-12-12T17:56:02.042Z,6.60
2018-12-12T18:00:58.447Z,6.67
2018-12-12T18:05:51.675Z,6.08
2018-12-12T18:10:44.887Z,6.30
2018-12-12T18:15:38.136Z,6.25
2018-12-12T18:20:31.496Z,5.80
2018-12-12T18:25:31.600Z,5.53
2018-12-12T18:30:24.835Z,5.60
2018-12-12T18:35:22.449Z,5.55
2018-12-12T18:40:16.130Z,5.97
2018-12-12T18:45:09.622Z,5.65
2018-12-12T18:50:03.266Z,5.70
2018-12-12T18:54:57.444Z,4.92
2018-12-12T18:59:50.666Z,4.70
2018-12-12T19:04:43.867Z,5.17
2018-12-12T19:09:37.112Z,4.58
2018-12-12T19:14:30.346Z,5.70
2018-12-12T19:19:23.543Z,5.33
2018-12-12T19:24:16.774Z,4.67
2018-12-12T19:29:09.964Z,5.90
2018-12-12T19:34:03.249Z,5.55
2018-12-12T19:38:56.433Z,5.00
2018-12-12T19:43:49.645Z,4.33
2018-12-12T19:48:42.873Z,3.47
2018-12-12T19:53:36.093Z,3.70
2018-12-12T19:58:29.310Z,3.67
2018-12-12T20:03:22.530Z,3.50
2018-12-12T20:08:15.750Z,4.33
2018-12-12T20:13:09.068Z,4.37
2018-12-12T20:18:02.250Z,4.30
2018-12-12T20:22:55.978Z,4.50
2018-12-12T20:27:49.162Z,4.80
2018-12-12T20:32:45.387Z,4.55
2018-12-12T20:37:38.621Z,4.93
2018-12-12T20:42:31.841Z,4.22
2018-12-12T20:47:25.112Z,4.80
2018-12-12T20:52:18.334Z,6.17
2018-12-12T20:57:12.211Z,6.80
2018-12-12T21:02:05.587Z,6.37
2018-12-12T21:06:59.018Z,6.05
2018-12-12T21:11:52.225Z,5.45
2018-12-12T21:16:45.438Z,5.08
2018-12-12T21:21:38.765Z,5.75
2018-12-12T21:26:32.011Z,6.15
2018-12-12T21:31:25.205Z,6.45
2018-12-12T21:36:18.428Z,6.22
2018-12-12T21:41:11.667Z,6.53
2018-12-12T21:46:04.871Z,6.70
2018-12-12T21:50:58.089Z,6.53
2018-12-12T21:55:51.287Z,6.05
2018-12-12T22:00:44.461Z,5.72
2018-12-12T22:05:37.695Z,6.28
2018-12-12T22:10:30.918Z,5.77
2018-12-12T22:15:24.243Z,5.80
2018-12-12T22:20:17.426Z,4.95
2018-12-12T22:25:10.704Z,5.45
2018-12-12T22:30:04.698Z,6.00
2018-12-12T22:34:57.874Z,5.87
2018-12-12T22:39:51.127Z,5.40
2018-12-12T22:44:44.681Z,6.53
2018-12-12T22:49:37.875Z,6.20
2018-12-12T22:54:32.772Z,6.03
2018-12-12T22:59:26.106Z,6.00
2018-12-12T23:04:19.335Z,5.60
2018-12-12T23:09:13.175Z,5.53
2018-12-12T23:14:06.433Z,5.92
2018-12-12T23:19:00.391Z,5.90
2018-12-12T23:23:53.629Z,6.50
2018-12-12T23:28:47.441Z,6.17
2018-12-12T23:33:40.670Z,6.00
2018-12-12T23:38:33.863Z,6.45
2018-12-12T23:43:27.045Z,7.17
2018-12-12T23:48:20.281Z,6.95
2018-12-12T23:53:13.466Z,6.58
2018-12-12T23:58:06.663Z,6.58
